Weather reports worldwide

Advertisment
Trevico, Italy (16263): temperature & dewpoint: 13.11.2019 18:00:00 - 19.11.2019 18:00:00 (CET)Trevico, Italy (16263): wind speed: 13.11.2019 18:00:00 - 19.11.2019 18:00:00 (CET)Trevico, Italy (16263): wind direction: 13.11.2019 18:00:00 - 19.11.2019 18:00:00 (CET)Trevico, Italy (16263): visibility: 13.11.2019 18:00:00 - 19.11.2019 18:00:00 (CET)
Date & Time tt [°C] td [°C] ff [km/h] ff [kn] dd vv [km]
19.11.2019 18:00:00 8,0 4,0 8 4 SE 10
19.11.2019 17:00:00 - - - - - -
19.11.2019 16:00:00 8,0 4,4 4 2 N 30
19.11.2019 15:00:00 - - - - - -
19.11.2019 14:00:00 - - - - - -
19.11.2019 13:00:00 9,0 4,8 4 2 N 30
19.11.2019 12:00:00 - - - - - -
19.11.2019 11:00:00 - - - - - -
19.11.2019 10:00:00 7,6 3,7 4 2 N 25
19.11.2019 09:00:00 - - - - - -
19.11.2019 08:00:00 - - - - - -
19.11.2019 07:00:00 5,8 2,4 13 7 ESE 30
19.11.2019 06:00:00 6,0 3,0 9 5 - 10
19.11.2019 05:00:00 6,0 3,0 16 9 - 10
19.11.2019 04:00:00 6,4 3,7 16 9 SE 30
19.11.2019 03:00:00 6,0 4,0 15 8 SE 10
19.11.2019 02:00:00 6,0 4,0 9 5 - 10
19.11.2019 01:00:00 6,4 3,6 4 2 N 30
19.11.2019 00:00:00 6,0 -30,0 13 7 - 10
18.11.2019 23:00:00 6,0 3,0 13 7 - 10
18.11.2019 22:00:00 6,4 3,2 4 2 N 30
18.11.2019 21:00:00 7,0 5,0 15 8 SE 10
18.11.2019 20:00:00 7,0 5,0 15 8 - 10
18.11.2019 19:00:00 7,2 5,4 4 2 N 30
18.11.2019 18:00:00 7,0 5,0 13 7 SE 10
18.11.2019 17:00:00 - - - - - -
18.11.2019 16:00:00 8,0 4,2 4 2 N 25
18.11.2019 15:00:00 8,0 4,0 9 5 SE 10
18.11.2019 14:00:00 - - - - - -
18.11.2019 13:00:00 9,4 3,6 4 2 N 20
18.11.2019 12:00:00 - - - - - -
18.11.2019 11:00:00 - - - - - -
18.11.2019 10:00:00 4,0 0,9 4 2 N 25
18.11.2019 09:00:00 - - - - - -
18.11.2019 08:00:00 - - - - - -
18.11.2019 07:00:00 2,2 -0,1 16 9 WSW 20
18.11.2019 06:00:00 2,0 0,0 29 16 WSW 10
18.11.2019 05:00:00 2,0 0,0 22 12 WSW 10
18.11.2019 04:00:00 2,0 -0,1 22 12 WSW 15
18.11.2019 03:00:00 2,0 0,0 26 14 WSW 10
18.11.2019 02:00:00 3,0 1,0 29 16 WSW -
18.11.2019 01:00:00 3,0 1,2 31 17 WSW -
18.11.2019 00:00:00 3,0 1,0 26 14 W -
17.11.2019 23:00:00 3,0 2,0 26 14 W -
17.11.2019 22:00:00 3,4 1,8 28 15 W -
17.11.2019 21:00:00 3,0 2,0 24 13 WSW -
17.11.2019 20:00:00 3,0 2,0 21 11 SSE -
17.11.2019 19:00:00 3,6 1,5 24 13 SSE -
17.11.2019 18:00:00 4,0 2,0 21 11 - 10
17.11.2019 17:00:00 4,0 2,0 16 9 S -
17.11.2019 16:00:00 3,6 1,6 24 13 SSE 10
17.11.2019 15:00:00 4,0 2,0 21 11 S -
17.11.2019 14:00:00 4,0 3,0 22 12 - -
17.11.2019 13:00:00 5,2 4,5 24 13 WSW -
17.11.2019 12:00:00 6,0 5,0 26 14 W -
17.11.2019 11:00:00 10,0 2,0 28 15 - 10
17.11.2019 10:00:00 9,8 1,9 4 2 N 20
17.11.2019 09:00:00 - - - - - -
17.11.2019 08:00:00 - - - - - -
17.11.2019 07:00:00 8,0 0,0 4 2 N 20
17.11.2019 06:00:00 8,0 0,0 18 10 - 10
17.11.2019 05:00:00 - - - - - -
17.11.2019 04:00:00 7,8 -0,7 4 2 N 20
17.11.2019 03:00:00 8,0 0,0 13 7 - 10
17.11.2019 02:00:00 - - - - - -
17.11.2019 01:00:00 8,0 0,0 11 6 ESE 20
17.11.2019 00:00:00 8,0 1,0 11 6 - 10
16.11.2019 23:00:00 8,0 1,0 16 9 - 10
16.11.2019 22:00:00 8,0 1,4 4 2 N 20
16.11.2019 21:00:00 8,0 2,0 16 9 - 10
16.11.2019 20:00:00 9,0 3,0 15 8 - 10
16.11.2019 19:00:00 0,0 0,0 4 2 N 20
16.11.2019 18:00:00 10,0 1,0 8 4 - 10
16.11.2019 17:00:00 - - - - - -
16.11.2019 16:00:00 12,8 2,9 4 2 N 25
16.11.2019 15:00:00 - - - - - -
16.11.2019 14:00:00 12,0 3,0 5 3 - 10
16.11.2019 13:00:00 11,6 2,6 4 2 N 15
16.11.2019 12:00:00 - - - - - -
16.11.2019 11:00:00 12,0 4,0 13 7 - 10
16.11.2019 10:00:00 11,0 4,7 9 5 - 16
16.11.2019 09:00:00 - - - - - -
16.11.2019 08:00:00 10,0 4,0 11 6 - 10
16.11.2019 07:00:00 10,4 4,1 13 7 - 20
16.11.2019 06:00:00 11,0 5,0 13 7 - 10
16.11.2019 05:00:00 - - - - - -
16.11.2019 04:00:00 10,4 6,5 4 2 N 14
16.11.2019 03:00:00 - - - - - -
16.11.2019 02:00:00 - - - - - -
16.11.2019 01:00:00 10,8 5,5 4 2 N 14
16.11.2019 00:00:00 - - - - - -
15.11.2019 23:00:00 11,0 5,0 16 9 - 10
15.11.2019 22:00:00 10,6 4,7 4 2 N 16
15.11.2019 21:00:00 - - - - - -
15.11.2019 20:00:00 - - - - - -
15.11.2019 19:00:00 9,8 3,1 4 2 N 18
15.11.2019 18:00:00 - - - - - -
15.11.2019 17:00:00 - - - - - -
15.11.2019 16:00:00 10,4 2,0 18 10 - 30
15.11.2019 15:00:00 10,0 4,0 11 6 - 10
15.11.2019 14:00:00 11,0 3,0 16 9 - 10
15.11.2019 13:00:00 10,4 4,5 8 4 - 30
15.11.2019 12:00:00 10,0 7,0 11 6 - 10
15.11.2019 11:00:00 - - - - - -
15.11.2019 10:00:00 8,0 4,9 16 9 - 30
15.11.2019 09:00:00 - - - - - -
15.11.2019 08:00:00 6,0 4,0 18 10 SSE 10
15.11.2019 07:00:00 7,2 4,2 11 6 SE 30
15.11.2019 06:00:00 7,0 4,0 15 8 - 10
15.11.2019 05:00:00 - - - - - -
15.11.2019 04:00:00 7,0 3,8 13 7 SE 15
15.11.2019 03:00:00 - - - - - -
15.11.2019 02:00:00 - - - - - -
15.11.2019 01:00:00 6,4 3,0 9 5 SSE 15
15.11.2019 00:00:00 6,0 3,0 18 10 SSE 10
14.11.2019 23:00:00 7,0 3,0 13 7 - 10
14.11.2019 22:00:00 6,8 3,6 4 2 N 15
14.11.2019 21:00:00 7,0 4,0 11 6 SSE 10
14.11.2019 20:00:00 8,0 4,0 13 7 SSE 10
14.11.2019 19:00:00 6,8 3,4 13 7 SE 15
14.11.2019 18:00:00 7,0 4,0 11 6 SE 10
14.11.2019 17:00:00 - - - - - -
14.11.2019 16:00:00 8,6 4,8 5 3 SSE 30
14.11.2019 15:00:00 - - - - - -
14.11.2019 14:00:00 - - - - - -
14.11.2019 13:00:00 8,0 6,1 4 2 N 30
14.11.2019 12:00:00 - - - - - -
14.11.2019 11:00:00 - - - - - -
14.11.2019 10:00:00 6,8 4,5 4 2 N 25
14.11.2019 09:00:00 - - - - - -
14.11.2019 08:00:00 - - - - - -
14.11.2019 07:00:00 5,4 3,3 11 6 - 25
14.11.2019 06:00:00 6,0 3,0 9 5 - 10
14.11.2019 05:00:00 6,0 2,0 13 7 SSE 10
14.11.2019 04:00:00 5,6 2,2 11 6 S 25
14.11.2019 03:00:00 5,0 2,0 13 7 - 10
14.11.2019 02:00:00 5,0 3,0 13 7 - 10
14.11.2019 01:00:00 5,6 2,6 4 2 N 25
14.11.2019 00:00:00 5,0 3,0 15 8 - 10
13.11.2019 23:00:00 6,0 4,0 11 6 - 10
13.11.2019 22:00:00 5,8 3,3 21 11 - 25
13.11.2019 21:00:00 5,0 3,0 26 14 SW 10
13.11.2019 20:00:00 5,0 3,0 24 13 WSW 10
13.11.2019 19:00:00 5,8 3,1 26 14 - 25
13.11.2019 18:00:00 6,0 4,0 24 13 - 10

tt = temperature
td = dewpoint
ff = wind speed
dd = wind direction
vv = visibility

Next stations